Chautauqua County-Jamestown Airport Jamestown US
ICAO: KJHW
IATA: JHW
Category: Medium
Scheduled Services: No

Elevation: 1723 ft
TransAlt. 18000 ft.

Airport Communications:
ERIE APP/DEP:126.05
AWOS 3:118.425
BUFFALO RDO:114.7
CTAF/UNICOM:122.7

KJHW Zoom In..

If you have problems with the map follow the link
https://www.worldairports.se/pages/airport.php?
ICAO=KJHW

Runways:

(A) RW 07 length 5299 ft width 100 ft
---- / hdg 69

(B) RW 13 length 4500 ft width 100 ft
---- / hdg 129

(C) RW 25 length 5299 ft width 100 ft
ILS 109.70 / hdg 249

(D) RW 31 length 4500 ft width 100 ft
---- / hdg 309

Location; KJHW
Day. 18 / Time. 21.56 Zulu
* Altimeter: 30.07
* Temperature: -03° c. -26.6°f.
* Wind from: 270° Speed 06 kn.
Dewpoint: -05° c.
Visibility: 9 Statute Miles.
Clouds: Overcast 1800 ft.
Conditions: Light Snow.

KJHW 182156Z AUTO 27006KT 9SM -SN OVC018 M03/M05 A3007 RMK AO2 SNB2057 SLP210 P0000 T10281050 FZRANO


Wind From 270°
Speed 06 kn.

 
 
jpsmedia.com for Web Design worldairports.se 2019   terms of use